sensor_id;sensor_type;location;lat;lon;timestamp;P1;durP1;ratioP1;P2;durP2;ratioP2
74538;SDS011;66042;51.090;-115.340;2023-03-01T00:01:40;12.90;;;6.60;;
74538;SDS011;66042;51.090;-115.340;2023-03-01T00:04:07;12.10;;;5.80;;
74538;SDS011;66042;51.090;-115.340;2023-03-01T00:06:36;12.30;;;5.60;;
74538;SDS011;66042;51.090;-115.340;2023-03-01T00:09:03;14.90;;;7.10;;
74538;SDS011;66042;51.090;-115.340;2023-03-01T00:11:33;16.20;;;7.00;;
74538;SDS011;66042;51.090;-115.340;2023-03-01T00:14:01;14.40;;;6.60;;
74538;SDS011;66042;51.090;-115.340;2023-03-01T00:16:38;9.10;;;4.30;;
74538;SDS011;66042;51.090;-115.340;2023-03-01T00:19:09;12.60;;;5.60;;
74538;SDS011;66042;51.090;-115.340;2023-03-01T00:21:40;13.40;;;5.20;;
74538;SDS011;66042;51.090;-115.340;2023-03-01T00:24:09;14.90;;;6.60;;
74538;SDS011;66042;51.090;-115.340;2023-03-01T00:26:38;10.60;;;4.80;;
74538;SDS011;66042;51.090;-115.340;2023-03-01T00:29:05;10.30;;;5.20;;
74538;SDS011;66042;51.090;-115.340;2023-03-01T00:31:33;13.40;;;5.30;;
74538;SDS011;66042;51.090;-115.340;2023-03-01T00:34:02;14.30;;;5.90;;
74538;SDS011;66042;51.090;-115.340;2023-03-01T00:36:33;10.40;;;4.40;;
74538;SDS011;66042;51.090;-115.340;2023-03-01T00:39:02;12.80;;;5.40;;
74538;SDS011;66042;51.090;-115.340;2023-03-01T00:41:31;13.80;;;6.00;;
74538;SDS011;66042;51.090;-115.340;2023-03-01T00:43:59;13.70;;;5.50;;
74538;SDS011;66042;51.090;-115.340;2023-03-01T00:46:27;13.80;;;4.90;;
74538;SDS011;66042;51.090;-115.340;2023-03-01T00:48:56;9.30;;;4.40;;
74538;SDS011;66042;51.090;-115.340;2023-03-01T00:51:26;9.90;;;4.90;;
74538;SDS011;66042;51.090;-115.340;2023-03-01T00:53:57;8.80;;;5.20;;
74538;SDS011;66042;51.090;-115.340;2023-03-01T00:56:25;16.80;;;7.40;;
74538;SDS011;66042;51.090;-115.340;2023-03-01T00:58:53;14.40;;;6.70;;
74538;SDS011;66042;51.090;-115.340;2023-03-01T01:01:24;18.70;;;7.60;;
74538;SDS011;66042;51.090;-115.340;2023-03-01T01:03:58;15.00;;;6.70;;
74538;SDS011;66042;51.090;-115.340;2023-03-01T01:06:33;12.70;;;6.40;;
74538;SDS011;66042;51.090;-115.340;2023-03-01T01:09:05;13.70;;;6.20;;
74538;SDS011;66042;51.090;-115.340;2023-03-01T01:11:33;15.20;;;6.10;;
74538;SDS011;66042;51.090;-115.340;2023-03-01T01:14:03;13.80;;;7.80;;
74538;SDS011;66042;51.090;-115.340;2023-03-01T01:16:30;10.30;;;4.90;;
74538;SDS011;66042;51.090;-115.340;2023-03-01T01:18:57;13.60;;;5.90;;
74538;SDS011;66042;51.090;-115.340;2023-03-01T01:21:25;12.70;;;5.10;;
74538;SDS011;66042;51.090;-115.340;2023-03-01T01:23:54;14.20;;;5.70;;
74538;SDS011;66042;51.090;-115.340;2023-03-01T01:26:25;12.30;;;5.60;;
74538;SDS011;66042;51.090;-115.340;2023-03-01T01:28:54;14.30;;;6.80;;
74538;SDS011;66042;51.090;-115.340;2023-03-01T01:31:22;14.50;;;6.30;;
74538;SDS011;66042;51.090;-115.340;2023-03-01T01:33:51;17.70;;;7.00;;
74538;SDS011;66042;51.090;-115.340;2023-03-01T01:36:19;12.50;;;4.50;;
74538;SDS011;66042;51.090;-115.340;2023-03-01T01:38:46;14.00;;;6.60;;
74538;SDS011;66042;51.090;-115.340;2023-03-01T01:41:14;9.90;;;4.30;;
74538;SDS011;66042;51.090;-115.340;2023-03-01T01:43:43;13.10;;;5.80;;
74538;SDS011;66042;51.090;-115.340;2023-03-01T01:46:32;15.60;;;6.10;;
74538;SDS011;66042;51.090;-115.340;2023-03-01T01:49:05;11.30;;;5.30;;
74538;SDS011;66042;51.090;-115.340;2023-03-01T01:51:45;14.00;;;6.40;;
74538;SDS011;66042;51.090;-115.340;2023-03-01T01:54:29;18.00;;;7.30;;
74538;SDS011;66042;51.090;-115.340;2023-03-01T01:57:07;15.40;;;7.60;;
74538;SDS011;66042;51.090;-115.340;2023-03-01T01:59:39;17.70;;;6.80;;
74538;SDS011;66042;51.090;-115.340;2023-03-01T02:02:10;14.60;;;6.50;;
74538;SDS011;66042;51.090;-115.340;2023-03-01T02:04:39;16.90;;;7.30;;
74538;SDS011;66042;51.090;-115.340;2023-03-01T02:07:17;13.70;;;6.80;;
74538;SDS011;66042;51.090;-115.340;2023-03-01T02:09:48;13.20;;;5.60;;
74538;SDS011;66042;51.090;-115.340;2023-03-01T02:12:19;13.20;;;6.20;;
74538;SDS011;66042;51.090;-115.340;2023-03-01T02:14:50;15.30;;;6.90;;
74538;SDS011;66042;51.090;-115.340;2023-03-01T02:17:18;17.30;;;6.50;;
74538;SDS011;66042;51.090;-115.340;2023-03-01T02:19:59;13.20;;;5.60;;
74538;SDS011;66042;51.090;-115.340;2023-03-01T02:22:47;19.70;;;8.20;;
74538;SDS011;66042;51.090;-115.340;2023-03-01T02:25:36;16.00;;;7.40;;
74538;SDS011;66042;51.090;-115.340;2023-03-01T02:30:53;14.00;;;6.50;;
74538;SDS011;66042;51.090;-115.340;2023-03-01T02:33:39;15.70;;;6.70;;
74538;SDS011;66042;51.090;-115.340;2023-03-01T02:36:17;20.80;;;8.70;;
74538;SDS011;66042;51.090;-115.340;2023-03-01T02:38:57;23.10;;;7.30;;
74538;SDS011;66042;51.090;-115.340;2023-03-01T02:41:28;24.20;;;8.70;;
74538;SDS011;66042;51.090;-115.340;2023-03-01T02:44:00;19.20;;;7.90;;
74538;SDS011;66042;51.090;-115.340;2023-03-01T02:46:28;17.50;;;8.10;;
74538;SDS011;66042;51.090;-115.340;2023-03-01T02:48:57;25.30;;;9.20;;
74538;SDS011;66042;51.090;-115.340;2023-03-01T02:51:34;16.80;;;8.10;;
74538;SDS011;66042;51.090;-115.340;2023-03-01T02:56:57;20.50;;;8.40;;
74538;SDS011;66042;51.090;-115.340;2023-03-01T02:59:29;14.40;;;6.30;;
74538;SDS011;66042;51.090;-115.340;2023-03-01T03:02:06;17.20;;;7.50;;
74538;SDS011;66042;51.090;-115.340;2023-03-01T03:05:09;15.00;;;5.90;;
74538;SDS011;66042;51.090;-115.340;2023-03-01T03:07:42;10.60;;;4.80;;
74538;SDS011;66042;51.090;-115.340;2023-03-01T03:10:17;15.90;;;6.90;;
74538;SDS011;66042;51.090;-115.340;2023-03-01T03:12:51;19.10;;;6.90;;
74538;SDS011;66042;51.090;-115.340;2023-03-01T03:15:21;16.40;;;7.50;;
74538;SDS011;66042;51.090;-115.340;2023-03-01T03:17:49;21.70;;;8.20;;
74538;SDS011;66042;51.090;-115.340;2023-03-01T03:20:20;15.40;;;7.20;;
74538;SDS011;66042;51.090;-115.340;2023-03-01T03:22:52;15.50;;;7.10;;
74538;SDS011;66042;51.090;-115.340;2023-03-01T03:25:22;21.30;;;9.10;;
74538;SDS011;66042;51.090;-115.340;2023-03-01T03:27:51;21.40;;;8.20;;
74538;SDS011;66042;51.090;-115.340;2023-03-01T03:30:27;22.10;;;7.10;;
74538;SDS011;66042;51.090;-115.340;2023-03-01T03:32:58;18.50;;;8.00;;
74538;SDS011;66042;51.090;-115.340;2023-03-01T03:35:34;15.20;;;6.80;;
74538;SDS011;66042;51.090;-115.340;2023-03-01T03:38:08;19.70;;;8.10;;
74538;SDS011;66042;51.090;-115.340;2023-03-01T03:40:54;23.50;;;9.60;;
74538;SDS011;66042;51.090;-115.340;2023-03-01T03:43:31;19.10;;;7.90;;
74538;SDS011;66042;51.090;-115.340;2023-03-01T03:46:01;20.80;;;8.10;;
74538;SDS011;66042;51.090;-115.340;2023-03-01T03:48:35;18.60;;;7.10;;
74538;SDS011;66042;51.090;-115.340;2023-03-01T03:51:04;17.30;;;7.90;;
74538;SDS011;66042;51.090;-115.340;2023-03-01T03:53:32;18.00;;;8.40;;
74538;SDS011;66042;51.090;-115.340;2023-03-01T03:55:59;19.40;;;7.40;;
74538;SDS011;66042;51.090;-115.340;2023-03-01T03:58:26;18.90;;;8.30;;
74538;SDS011;66042;51.090;-115.340;2023-03-01T04:00:55;20.70;;;8.60;;
74538;SDS011;66042;51.090;-115.340;2023-03-01T04:03:25;22.60;;;8.70;;
74538;SDS011;66042;51.090;-115.340;2023-03-01T04:05:54;21.90;;;7.70;;
74538;SDS011;66042;51.090;-115.340;2023-03-01T04:08:23;20.50;;;8.40;;
74538;SDS011;66042;51.090;-115.340;2023-03-01T04:10:52;22.70;;;8.00;;
74538;SDS011;66042;51.090;-115.340;2023-03-01T04:13:24;19.70;;;8.60;;
74538;SDS011;66042;51.090;-115.340;2023-03-01T04:15:53;19.90;;;8.30;;
74538;SDS011;66042;51.090;-115.340;2023-03-01T04:18:22;17.60;;;7.20;;
74538;SDS011;66042;51.090;-115.340;2023-03-01T04:20:52;19.60;;;8.30;;
74538;SDS011;66042;51.090;-115.340;2023-03-01T04:23:21;17.70;;;7.10;;
74538;SDS011;66042;51.090;-115.340;2023-03-01T04:25:58;17.90;;;7.40;;
74538;SDS011;66042;51.090;-115.340;2023-03-01T04:28:31;18.50;;;7.20;;
74538;SDS011;66042;51.090;-115.340;2023-03-01T04:31:04;20.90;;;7.70;;
74538;SDS011;66042;51.090;-115.340;2023-03-01T04:33:52;19.90;;;7.40;;
74538;SDS011;66042;51.090;-115.340;2023-03-01T04:36:23;15.60;;;6.80;;
74538;SDS011;66042;51.090;-115.340;2023-03-01T04:38:52;19.90;;;7.80;;
74538;SDS011;66042;51.090;-115.340;2023-03-01T04:41:21;17.50;;;7.30;;
74538;SDS011;66042;51.090;-115.340;2023-03-01T04:43:50;15.00;;;6.50;;
74538;SDS011;66042;51.090;-115.340;2023-03-01T04:46:19;19.90;;;7.00;;
74538;SDS011;66042;51.090;-115.340;2023-03-01T04:48:47;15.90;;;6.90;;
74538;SDS011;66042;51.090;-115.340;2023-03-01T04:51:14;16.10;;;5.90;;
74538;SDS011;66042;51.090;-115.340;2023-03-01T04:53:42;15.60;;;6.80;;
74538;SDS011;66042;51.090;-115.340;2023-03-01T04:56:10;18.30;;;7.50;;
74538;SDS011;66042;51.090;-115.340;2023-03-01T04:58:40;16.20;;;7.20;;
74538;SDS011;66042;51.090;-115.340;2023-03-01T05:01:12;14.50;;;6.10;;
74538;SDS011;66042;51.090;-115.340;2023-03-01T05:03:51;18.70;;;7.40;;
74538;SDS011;66042;51.090;-115.340;2023-03-01T05:06:19;17.20;;;6.60;;
74538;SDS011;66042;51.090;-115.340;2023-03-01T05:08:46;13.10;;;6.80;;
74538;SDS011;66042;51.090;-115.340;2023-03-01T05:11:14;15.90;;;6.30;;
74538;SDS011;66042;51.090;-115.340;2023-03-01T05:13:41;15.00;;;6.30;;
74538;SDS011;66042;51.090;-115.340;2023-03-01T05:16:09;17.00;;;6.90;;
74538;SDS011;66042;51.090;-115.340;2023-03-01T05:18:37;15.70;;;6.00;;
74538;SDS011;66042;51.090;-115.340;2023-03-01T05:21:12;12.30;;;5.10;;
74538;SDS011;66042;51.090;-115.340;2023-03-01T05:23:44;12.80;;;6.00;;
74538;SDS011;66042;51.090;-115.340;2023-03-01T05:26:14;13.30;;;6.20;;
74538;SDS011;66042;51.090;-115.340;2023-03-01T05:28:41;15.70;;;6.20;;
74538;SDS011;66042;51.090;-115.340;2023-03-01T05:31:08;17.10;;;8.00;;
74538;SDS011;66042;51.090;-115.340;2023-03-01T05:33:37;14.70;;;7.40;;
74538;SDS011;66042;51.090;-115.340;2023-03-01T05:36:06;16.40;;;6.90;;
74538;SDS011;66042;51.090;-115.340;2023-03-01T05:38:35;15.70;;;6.70;;
74538;SDS011;66042;51.090;-115.340;2023-03-01T05:41:02;17.40;;;7.00;;
74538;SDS011;66042;51.090;-115.340;2023-03-01T05:43:33;16.90;;;6.30;;
74538;SDS011;66042;51.090;-115.340;2023-03-01T05:46:00;12.80;;;6.10;;
74538;SDS011;66042;51.090;-115.340;2023-03-01T05:48:27;18.00;;;7.20;;
74538;SDS011;66042;51.090;-115.340;2023-03-01T05:50:54;16.00;;;6.70;;
74538;SDS011;66042;51.090;-115.340;2023-03-01T05:53:25;13.20;;;6.70;;
74538;SDS011;66042;51.090;-115.340;2023-03-01T05:55:52;20.20;;;7.70;;
74538;SDS011;66042;51.090;-115.340;2023-03-01T05:58:20;10.70;;;4.80;;
74538;SDS011;66042;51.090;-115.340;2023-03-01T06:00:49;16.60;;;7.20;;
74538;SDS011;66042;51.090;-115.340;2023-03-01T06:03:17;12.10;;;4.50;;
74538;SDS011;66042;51.090;-115.340;2023-03-01T06:05:45;14.90;;;7.10;;
74538;SDS011;66042;51.090;-115.340;2023-03-01T06:08:12;15.40;;;7.10;;
74538;SDS011;66042;51.090;-115.340;2023-03-01T06:10:39;14.60;;;6.40;;
74538;SDS011;66042;51.090;-115.340;2023-03-01T06:13:07;19.10;;;7.50;;
74538;SDS011;66042;51.090;-115.340;2023-03-01T06:15:34;15.80;;;6.90;;
74538;SDS011;66042;51.090;-115.340;2023-03-01T06:18:01;17.60;;;7.10;;
74538;SDS011;66042;51.090;-115.340;2023-03-01T06:20:29;15.20;;;7.70;;
74538;SDS011;66042;51.090;-115.340;2023-03-01T06:22:56;14.80;;;6.20;;
74538;SDS011;66042;51.090;-115.340;2023-03-01T06:25:25;13.10;;;6.60;;
74538;SDS011;66042;51.090;-115.340;2023-03-01T06:27:53;13.50;;;6.10;;
74538;SDS011;66042;51.090;-115.340;2023-03-01T06:30:22;17.40;;;6.60;;
74538;SDS011;66042;51.090;-115.340;2023-03-01T06:32:50;12.80;;;5.60;;
74538;SDS011;66042;51.090;-115.340;2023-03-01T06:35:18;16.80;;;7.50;;
74538;SDS011;66042;51.090;-115.340;2023-03-01T06:37:47;18.10;;;6.00;;
74538;SDS011;66042;51.090;-115.340;2023-03-01T06:40:15;14.20;;;6.40;;
74538;SDS011;66042;51.090;-115.340;2023-03-01T06:42:43;19.80;;;7.10;;
74538;SDS011;66042;51.090;-115.340;2023-03-01T06:45:19;19.00;;;7.10;;
74538;SDS011;66042;51.090;-115.340;2023-03-01T06:47:47;14.70;;;6.10;;
74538;SDS011;66042;51.090;-115.340;2023-03-01T06:50:15;18.40;;;7.40;;
74538;SDS011;66042;51.090;-115.340;2023-03-01T06:52:43;14.90;;;7.30;;
74538;SDS011;66042;51.090;-115.340;2023-03-01T06:55:12;22.90;;;6.70;;
74538;SDS011;66042;51.090;-115.340;2023-03-01T06:57:39;11.80;;;5.80;;
74538;SDS011;66042;51.090;-115.340;2023-03-01T07:00:06;14.20;;;5.50;;
74538;SDS011;66042;51.090;-115.340;2023-03-01T07:02:34;16.50;;;7.20;;
74538;SDS011;66042;51.090;-115.340;2023-03-01T07:05:01;17.70;;;6.40;;
74538;SDS011;66042;51.090;-115.340;2023-03-01T07:07:28;13.70;;;6.30;;
74538;SDS011;66042;51.090;-115.340;2023-03-01T07:09:55;15.20;;;5.80;;
74538;SDS011;66042;51.090;-115.340;2023-03-01T07:12:22;14.10;;;6.20;;
74538;SDS011;66042;51.090;-115.340;2023-03-01T07:14:49;14.30;;;6.20;;
74538;SDS011;66042;51.090;-115.340;2023-03-01T07:17:16;15.30;;;6.10;;
74538;SDS011;66042;51.090;-115.340;2023-03-01T07:19:43;13.00;;;6.00;;
74538;SDS011;66042;51.090;-115.340;2023-03-01T07:22:10;14.70;;;6.00;;
74538;SDS011;66042;51.090;-115.340;2023-03-01T07:24:38;16.00;;;6.50;;
74538;SDS011;66042;51.090;-115.340;2023-03-01T07:27:04;15.00;;;6.00;;
74538;SDS011;66042;51.090;-115.340;2023-03-01T07:29:31;14.40;;;6.90;;
74538;SDS011;66042;51.090;-115.340;2023-03-01T07:31:59;11.20;;;5.80;;
74538;SDS011;66042;51.090;-115.340;2023-03-01T07:34:25;13.70;;;5.90;;
74538;SDS011;66042;51.090;-115.340;2023-03-01T07:36:53;16.70;;;6.30;;
74538;SDS011;66042;51.090;-115.340;2023-03-01T07:39:19;14.80;;;5.90;;
74538;SDS011;66042;51.090;-115.340;2023-03-01T07:41:50;17.60;;;5.80;;
74538;SDS011;66042;51.090;-115.340;2023-03-01T07:44:17;18.20;;;6.20;;
74538;SDS011;66042;51.090;-115.340;2023-03-01T07:46:44;13.10;;;6.70;;
74538;SDS011;66042;51.090;-115.340;2023-03-01T07:49:11;13.50;;;5.40;;
74538;SDS011;66042;51.090;-115.340;2023-03-01T07:51:38;15.80;;;6.20;;
74538;SDS011;66042;51.090;-115.340;2023-03-01T07:54:05;17.70;;;5.80;;
74538;SDS011;66042;51.090;-115.340;2023-03-01T07:56:32;17.90;;;5.60;;
74538;SDS011;66042;51.090;-115.340;2023-03-01T07:58:59;14.10;;;5.80;;
74538;SDS011;66042;51.090;-115.340;2023-03-01T08:01:26;13.30;;;5.90;;
74538;SDS011;66042;51.090;-115.340;2023-03-01T08:03:53;14.30;;;5.00;;
74538;SDS011;66042;51.090;-115.340;2023-03-01T08:06:20;13.20;;;6.00;;
74538;SDS011;66042;51.090;-115.340;2023-03-01T08:08:47;12.30;;;5.40;;
74538;SDS011;66042;51.090;-115.340;2023-03-01T08:11:15;10.70;;;5.40;;
74538;SDS011;66042;51.090;-115.340;2023-03-01T08:13:42;12.30;;;5.90;;
74538;SDS011;66042;51.090;-115.340;2023-03-01T08:16:14;10.80;;;6.10;;
74538;SDS011;66042;51.090;-115.340;2023-03-01T08:18:43;11.20;;;4.60;;
74538;SDS011;66042;51.090;-115.340;2023-03-01T08:21:13;15.40;;;6.20;;
74538;SDS011;66042;51.090;-115.340;2023-03-01T08:23:42;16.00;;;6.80;;
74538;SDS011;66042;51.090;-115.340;2023-03-01T08:26:14;11.60;;;4.90;;
74538;SDS011;66042;51.090;-115.340;2023-03-01T08:28:43;11.00;;;4.70;;
74538;SDS011;66042;51.090;-115.340;2023-03-01T08:33:55;14.50;;;6.20;;
74538;SDS011;66042;51.090;-115.340;2023-03-01T08:36:31;12.90;;;5.00;;
74538;SDS011;66042;51.090;-115.340;2023-03-01T08:39:04;13.50;;;6.40;;
74538;SDS011;66042;51.090;-115.340;2023-03-01T08:41:32;13.60;;;6.00;;
74538;SDS011;66042;51.090;-115.340;2023-03-01T08:43:59;11.80;;;5.80;;
74538;SDS011;66042;51.090;-115.340;2023-03-01T08:46:32;12.10;;;5.20;;
74538;SDS011;66042;51.090;-115.340;2023-03-01T08:49:12;11.00;;;6.20;;
74538;SDS011;66042;51.090;-115.340;2023-03-01T08:51:42;12.30;;;6.10;;
74538;SDS011;66042;51.090;-115.340;2023-03-01T08:54:18;12.40;;;5.80;;
74538;SDS011;66042;51.090;-115.340;2023-03-01T08:56:46;13.20;;;5.00;;
74538;SDS011;66042;51.090;-115.340;2023-03-01T08:59:17;13.70;;;5.00;;
74538;SDS011;66042;51.090;-115.340;2023-03-01T09:01:45;15.60;;;6.60;;
74538;SDS011;66042;51.090;-115.340;2023-03-01T09:04:13;19.00;;;5.20;;
74538;SDS011;66042;51.090;-115.340;2023-03-01T09:06:41;12.30;;;6.00;;
74538;SDS011;66042;51.090;-115.340;2023-03-01T09:09:14;16.50;;;6.00;;
74538;SDS011;66042;51.090;-115.340;2023-03-01T09:11:43;7.80;;;3.50;;
74538;SDS011;66042;51.090;-115.340;2023-03-01T09:14:13;8.10;;;3.70;;
74538;SDS011;66042;51.090;-115.340;2023-03-01T09:16:40;11.90;;;5.10;;
74538;SDS011;66042;51.090;-115.340;2023-03-01T09:19:07;12.70;;;5.10;;
74538;SDS011;66042;51.090;-115.340;2023-03-01T09:21:34;14.40;;;5.10;;
74538;SDS011;66042;51.090;-115.340;2023-03-01T09:24:01;10.30;;;4.60;;
74538;SDS011;66042;51.090;-115.340;2023-03-01T09:26:28;11.60;;;4.20;;
74538;SDS011;66042;51.090;-115.340;2023-03-01T09:28:56;10.60;;;4.70;;
74538;SDS011;66042;51.090;-115.340;2023-03-01T09:31:24;18.70;;;5.80;;
74538;SDS011;66042;51.090;-115.340;2023-03-01T09:33:53;14.20;;;4.70;;
74538;SDS011;66042;51.090;-115.340;2023-03-01T09:36:23;12.60;;;5.80;;
74538;SDS011;66042;51.090;-115.340;2023-03-01T09:38:53;11.00;;;4.70;;
74538;SDS011;66042;51.090;-115.340;2023-03-01T09:41:34;8.70;;;3.70;;
74538;SDS011;66042;51.090;-115.340;2023-03-01T09:44:35;8.90;;;3.90;;
74538;SDS011;66042;51.090;-115.340;2023-03-01T09:47:18;11.40;;;4.70;;
74538;SDS011;66042;51.090;-115.340;2023-03-01T09:50:16;10.00;;;4.10;;
74538;SDS011;66042;51.090;-115.340;2023-03-01T09:53:21;10.20;;;4.70;;
74538;SDS011;66042;51.090;-115.340;2023-03-01T09:56:05;13.00;;;4.40;;
74538;SDS011;66042;51.090;-115.340;2023-03-01T09:58:52;14.00;;;5.70;;
74538;SDS011;66042;51.090;-115.340;2023-03-01T10:01:46;10.40;;;5.30;;
74538;SDS011;66042;51.090;-115.340;2023-03-01T10:07:42;9.10;;;4.20;;
74538;SDS011;66042;51.090;-115.340;2023-03-01T10:10:43;8.00;;;3.80;;
74538;SDS011;66042;51.090;-115.340;2023-03-01T10:19:23;13.90;;;5.30;;
74538;SDS011;66042;51.090;-115.340;2023-03-01T10:22:28;10.90;;;4.90;;
74538;SDS011;66042;51.090;-115.340;2023-03-01T10:24:58;15.10;;;5.10;;
74538;SDS011;66042;51.090;-115.340;2023-03-01T10:27:50;5.50;;;3.80;;
74538;SDS011;66042;51.090;-115.340;2023-03-01T10:30:34;6.50;;;3.30;;
74538;SDS011;66042;51.090;-115.340;2023-03-01T10:33:22;14.60;;;5.60;;
74538;SDS011;66042;51.090;-115.340;2023-03-01T10:35:52;14.40;;;5.60;;
74538;SDS011;66042;51.090;-115.340;2023-03-01T10:38:20;8.30;;;3.90;;
74538;SDS011;66042;51.090;-115.340;2023-03-01T10:40:51;13.30;;;5.50;;
74538;SDS011;66042;51.090;-115.340;2023-03-01T10:43:40;10.90;;;5.20;;
74538;SDS011;66042;51.090;-115.340;2023-03-01T10:46:30;10.60;;;4.10;;
74538;SDS011;66042;51.090;-115.340;2023-03-01T10:49:20;4.60;;;2.70;;
74538;SDS011;66042;51.090;-115.340;2023-03-01T10:51:50;12.20;;;5.90;;
74538;SDS011;66042;51.090;-115.340;2023-03-01T10:54:32;10.70;;;5.80;;
74538;SDS011;66042;51.090;-115.340;2023-03-01T10:57:03;13.80;;;6.20;;
74538;SDS011;66042;51.090;-115.340;2023-03-01T10:59:35;14.00;;;6.70;;
74538;SDS011;66042;51.090;-115.340;2023-03-01T11:04:35;15.90;;;5.50;;
74538;SDS011;66042;51.090;-115.340;2023-03-01T11:07:02;13.30;;;5.60;;
74538;SDS011;66042;51.090;-115.340;2023-03-01T11:09:34;10.20;;;4.50;;
74538;SDS011;66042;51.090;-115.340;2023-03-01T11:12:11;11.00;;;5.50;;
74538;SDS011;66042;51.090;-115.340;2023-03-01T11:14:48;12.00;;;6.40;;
74538;SDS011;66042;51.090;-115.340;2023-03-01T11:17:25;16.00;;;6.70;;
74538;SDS011;66042;51.090;-115.340;2023-03-01T11:20:20;10.10;;;5.30;;
74538;SDS011;66042;51.090;-115.340;2023-03-01T11:22:54;17.70;;;5.50;;
74538;SDS011;66042;51.090;-115.340;2023-03-01T11:25:29;9.40;;;3.60;;
74538;SDS011;66042;51.090;-115.340;2023-03-01T11:28:14;11.00;;;4.50;;
74538;SDS011;66042;51.090;-115.340;2023-03-01T11:31:04;9.30;;;4.80;;
74538;SDS011;66042;51.090;-115.340;2023-03-01T11:33:47;10.60;;;4.30;;
74538;SDS011;66042;51.090;-115.340;2023-03-01T11:36:59;12.30;;;3.90;;
74538;SDS011;66042;51.090;-115.340;2023-03-01T11:39:41;9.20;;;4.50;;
74538;SDS011;66042;51.090;-115.340;2023-03-01T11:42:29;16.60;;;6.10;;
74538;SDS011;66042;51.090;-115.340;2023-03-01T11:45:16;12.90;;;5.70;;
74538;SDS011;66042;51.090;-115.340;2023-03-01T11:50:47;9.20;;;3.50;;
74538;SDS011;66042;51.090;-115.340;2023-03-01T11:56:32;9.60;;;5.30;;
74538;SDS011;66042;51.090;-115.340;2023-03-01T11:59:26;9.00;;;4.10;;
74538;SDS011;66042;51.090;-115.340;2023-03-01T12:02:44;10.00;;;4.60;;
74538;SDS011;66042;51.090;-115.340;2023-03-01T12:08:17;12.30;;;5.00;;
74538;SDS011;66042;51.090;-115.340;2023-03-01T12:34:54;10.20;;;3.70;;
74538;SDS011;66042;51.090;-115.340;2023-03-01T12:46:06;9.60;;;4.60;;
74538;SDS011;66042;51.090;-115.340;2023-03-01T12:52:11;12.90;;;6.30;;
74538;SDS011;66042;51.090;-115.340;2023-03-01T12:54:41;11.80;;;5.60;;
74538;SDS011;66042;51.090;-115.340;2023-03-01T12:57:17;15.20;;;5.00;;
74538;SDS011;66042;51.090;-115.340;2023-03-01T13:02:58;12.20;;;5.30;;
74538;SDS011;66042;51.090;-115.340;2023-03-01T13:06:42;9.70;;;4.60;;
74538;SDS011;66042;51.090;-115.340;2023-03-01T13:11:57;12.30;;;5.20;;
74538;SDS011;66042;51.090;-115.340;2023-03-01T13:16:54;10.40;;;4.00;;
74538;SDS011;66042;51.090;-115.340;2023-03-01T13:19:23;9.90;;;4.10;;
74538;SDS011;66042;51.090;-115.340;2023-03-01T13:21:53;7.70;;;2.80;;
74538;SDS011;66042;51.090;-115.340;2023-03-01T13:24:35;9.90;;;4.50;;
74538;SDS011;66042;51.090;-115.340;2023-03-01T13:29:59;10.20;;;4.50;;
74538;SDS011;66042;51.090;-115.340;2023-03-01T13:32:31;10.60;;;4.50;;
74538;SDS011;66042;51.090;-115.340;2023-03-01T13:41:07;9.90;;;5.30;;
74538;SDS011;66042;51.090;-115.340;2023-03-01T13:43:38;8.40;;;4.00;;
74538;SDS011;66042;51.090;-115.340;2023-03-01T13:46:11;12.40;;;5.00;;
74538;SDS011;66042;51.090;-115.340;2023-03-01T13:48:45;10.40;;;4.70;;
74538;SDS011;66042;51.090;-115.340;2023-03-01T13:51:15;7.70;;;3.80;;
74538;SDS011;66042;51.090;-115.340;2023-03-01T13:53:47;11.50;;;4.70;;
74538;SDS011;66042;51.090;-115.340;2023-03-01T13:56:27;7.60;;;4.20;;
74538;SDS011;66042;51.090;-115.340;2023-03-01T13:59:04;11.00;;;4.50;;
74538;SDS011;66042;51.090;-115.340;2023-03-01T14:01:55;8.10;;;4.30;;
74538;SDS011;66042;51.090;-115.340;2023-03-01T14:04:27;9.70;;;4.20;;
74538;SDS011;66042;51.090;-115.340;2023-03-01T14:07:13;11.50;;;5.00;;
74538;SDS011;66042;51.090;-115.340;2023-03-01T14:10:02;13.30;;;4.90;;
74538;SDS011;66042;51.090;-115.340;2023-03-01T14:13:40;9.20;;;3.60;;
74538;SDS011;66042;51.090;-115.340;2023-03-01T14:19:09;8.10;;;4.00;;
74538;SDS011;66042;51.090;-115.340;2023-03-01T14:21:37;10.60;;;3.10;;
74538;SDS011;66042;51.090;-115.340;2023-03-01T14:24:04;10.20;;;4.20;;
74538;SDS011;66042;51.090;-115.340;2023-03-01T14:26:34;6.20;;;2.00;;
74538;SDS011;66042;51.090;-115.340;2023-03-01T14:29:02;7.90;;;3.70;;
74538;SDS011;66042;51.090;-115.340;2023-03-01T14:31:39;5.20;;;2.70;;
74538;SDS011;66042;51.090;-115.340;2023-03-01T14:34:19;10.60;;;4.60;;
74538;SDS011;66042;51.090;-115.340;2023-03-01T14:36:50;9.90;;;4.50;;
74538;SDS011;66042;51.090;-115.340;2023-03-01T14:39:23;8.20;;;4.20;;
74538;SDS011;66042;51.090;-115.340;2023-03-01T14:41:52;11.00;;;3.70;;
74538;SDS011;66042;51.090;-115.340;2023-03-01T14:44:23;7.40;;;4.40;;
74538;SDS011;66042;51.090;-115.340;2023-03-01T14:46:55;9.90;;;3.30;;
74538;SDS011;66042;51.090;-115.340;2023-03-01T14:49:28;7.80;;;3.40;;
74538;SDS011;66042;51.090;-115.340;2023-03-01T14:52:00;10.30;;;4.00;;
74538;SDS011;66042;51.090;-115.340;2023-03-01T14:54:51;8.10;;;4.50;;
74538;SDS011;66042;51.090;-115.340;2023-03-01T14:57:26;10.60;;;4.20;;
74538;SDS011;66042;51.090;-115.340;2023-03-01T14:59:55;9.60;;;4.80;;
74538;SDS011;66042;51.090;-115.340;2023-03-01T15:02:27;6.20;;;2.60;;
74538;SDS011;66042;51.090;-115.340;2023-03-01T15:04:58;10.30;;;4.40;;
74538;SDS011;66042;51.090;-115.340;2023-03-01T15:07:30;9.50;;;4.10;;
74538;SDS011;66042;51.090;-115.340;2023-03-01T15:10:01;9.40;;;3.60;;
74538;SDS011;66042;51.090;-115.340;2023-03-01T15:12:36;6.60;;;2.50;;
74538;SDS011;66042;51.090;-115.340;2023-03-01T15:15:43;9.00;;;4.30;;
74538;SDS011;66042;51.090;-115.340;2023-03-01T15:18:22;13.00;;;5.70;;
74538;SDS011;66042;51.090;-115.340;2023-03-01T15:20:54;11.00;;;4.40;;
74538;SDS011;66042;51.090;-115.340;2023-03-01T15:23:29;13.90;;;5.30;;
74538;SDS011;66042;51.090;-115.340;2023-03-01T15:25:58;6.40;;;3.40;;
74538;SDS011;66042;51.090;-115.340;2023-03-01T15:28:41;9.60;;;4.90;;
74538;SDS011;66042;51.090;-115.340;2023-03-01T15:33:50;9.40;;;4.70;;
74538;SDS011;66042;51.090;-115.340;2023-03-01T15:36:35;9.20;;;5.10;;
74538;SDS011;66042;51.090;-115.340;2023-03-01T15:39:37;12.50;;;4.60;;
74538;SDS011;66042;51.090;-115.340;2023-03-01T15:42:09;11.80;;;5.50;;
74538;SDS011;66042;51.090;-115.340;2023-03-01T15:44:40;9.90;;;4.00;;
74538;SDS011;66042;51.090;-115.340;2023-03-01T15:47:28;12.30;;;5.60;;
74538;SDS011;66042;51.090;-115.340;2023-03-01T15:49:58;11.90;;;4.50;;
74538;SDS011;66042;51.090;-115.340;2023-03-01T15:52:40;9.60;;;4.30;;
74538;SDS011;66042;51.090;-115.340;2023-03-01T15:55:34;9.40;;;3.30;;
74538;SDS011;66042;51.090;-115.340;2023-03-01T15:58:17;11.20;;;3.40;;
74538;SDS011;66042;51.090;-115.340;2023-03-01T16:00:49;8.60;;;4.30;;
74538;SDS011;66042;51.090;-115.340;2023-03-01T16:03:22;7.30;;;3.20;;